Terminal Aerodrome Forecast
Issued by NWS Wilmington, OH

Current Version | Previous Version | Graphics & Text | Print | Product List | Glossary On
Versions: 1 2 3 4 5 6 7 8 9 10 11 12 13 14 15 16 17 18 19 20 21 22 23 24 25
000
FTUS41 KILN 251500 AAA
TAFCMH
TAF AMD
KCMH 251509Z 2515/2612 21019G26KT P6SM VCSH BKN060
     FM252000 22014G21KT P6SM VCSH BKN050
     FM260100 18006KT P6SM BKN120
     FM260700 18007KT P6SM BKN040=

USA.gov is the U.S. government's official web portal to all federal, state and local government web resources and services.